Time;durP1;ratioP1;P1;durP2;ratioP2;P2;SDS_P1;SDS_P2;PMS_P1;PMS_P2;Temp;Humidity;BMP_temperature;BMP_pressure;BME280_temperature;BME280_humidity;BME280_pressure;Samples;Min_cycle;Max_cycle;Signal;HPM_P1;HPM_P2
2023/12/13 00:00:18;;;;;;;579.45;286.42;;;;;;;9.25;100.00;96438.13;5015031;28;20040;-54
2023/12/13 00:02:43;;;;;;;627.85;292.13;;;;;;;9.35;100.00;96424.03;5016678;28;20455;-53
2023/12/13 00:05:09;;;;;;;575.50;287.63;;;;;;;9.23;100.00;96424.31;5016324;28;20037;-53
2023/12/13 00:07:34;;;;;;;655.33;290.15;;;;;;;9.32;100.00;96408.53;5015614;28;20022;-55
2023/12/13 00:09:59;;;;;;;621.05;287.85;;;;;;;9.32;100.00;96403.34;5015877;28;20237;-54
2023/12/13 00:12:25;;;;;;;661.83;291.30;;;;;;;9.31;100.00;96413.78;5013832;28;20517;-53
2023/12/13 00:14:50;;;;;;;599.80;293.17;;;;;;;9.30;100.00;96391.31;5016051;28;20432;-55
2023/12/13 00:17:15;;;;;;;602.75;289.20;;;;;;;9.30;100.00;96407.72;5016356;28;20212;-54
2023/12/13 00:19:41;;;;;;;585.58;292.25;;;;;;;9.33;100.00;96391.22;5015346;28;20018;-54
2023/12/13 00:22:06;;;;;;;589.28;287.60;;;;;;;9.27;100.00;96396.59;5014877;28;20075;-56
2023/12/13 00:24:31;;;;;;;670.70;298.77;;;;;;;9.31;100.00;96395.63;5015532;28;20045;-55
2023/12/13 00:26:57;;;;;;;606.42;293.58;;;;;;;9.33;100.00;96405.06;5015996;28;20148;-53
2023/12/13 00:29:22;;;;;;;656.67;296.20;;;;;;;9.18;100.00;96395.91;5015137;28;20116;-54
2023/12/13 00:31:47;;;;;;;605.35;294.70;;;;;;;9.41;100.00;96394.50;5017471;28;20068;-55
2023/12/13 00:34:13;;;;;;;602.97;293.08;;;;;;;9.38;100.00;96397.16;5020434;28;20021;-55
2023/12/13 00:36:38;;;;;;;610.60;297.67;;;;;;;9.45;100.00;96403.91;5017307;28;20748;-55
2023/12/13 00:39:03;;;;;;;636.88;296.45;;;;;;;9.48;100.00;96403.84;5019665;28;20516;-54
2023/12/13 00:41:29;;;;;;;640.83;297.55;;;;;;;9.48;100.00;96406.44;5017791;28;20034;-55
2023/12/13 00:43:54;;;;;;;620.15;294.13;;;;;;;9.57;100.00;96420.09;5020229;28;20061;-53
2023/12/13 00:46:21;;;;;;;622.10;298.00;;;;;;;9.71;100.00;96417.97;5016742;28;20048;-54
2023/12/13 00:48:47;;;;;;;609.15;293.90;;;;;;;9.59;100.00;96423.47;5020517;28;20032;-56
2023/12/13 00:51:16;;;;;;;625.17;294.08;;;;;;;9.49;100.00;96421.13;5016231;28;20037;-55
2023/12/13 00:53:42;;;;;;;580.55;294.02;;;;;;;9.57;100.00;96426.09;5018493;28;20025;-56
2023/12/13 00:56:07;;;;;;;590.72;295.80;;;;;;;9.55;100.00;96420.13;5018339;28;20049;-56
2023/12/13 00:58:33;;;;;;;696.08;300.50;;;;;;;9.51;100.00;96418.50;5018833;28;20396;-55
2023/12/13 01:01:00;;;;;;;607.20;291.27;;;;;;;9.60;100.00;96417.38;5017238;28;20041;-56
2023/12/13 01:03:25;;;;;;;648.90;296.92;;;;;;;9.61;100.00;96425.16;5017641;28;20034;-55
2023/12/13 01:05:51;;;;;;;609.30;291.65;;;;;;;9.69;100.00;96418.91;5018389;28;20427;-54
2023/12/13 01:08:17;;;;;;;638.53;297.40;;;;;;;9.81;100.00;96409.97;5018511;28;20037;-55
2023/12/13 01:10:43;;;;;;;582.22;294.05;;;;;;;9.73;100.00;96415.34;5018349;28;20457;-55
2023/12/13 01:13:08;;;;;;;591.30;295.10;;;;;;;9.78;100.00;96421.28;5019548;28;20447;-57
2023/12/13 01:15:33;;;;;;;648.22;296.45;;;;;;;9.73;100.00;96418.78;5018275;28;20064;-56
2023/12/13 01:17:59;;;;;;;599.78;296.27;;;;;;;9.81;100.00;96422.94;5019660;28;20047;-55
2023/12/13 01:20:24;;;;;;;694.60;304.48;;;;;;;9.71;100.00;96414.53;5017056;28;20018;-55
2023/12/13 01:22:49;;;;;;;596.05;293.48;;;;;;;9.64;100.00;96414.69;5019389;28;20125;-56
2023/12/13 01:25:15;;;;;;;582.08;293.95;;;;;;;9.64;100.00;96417.28;5017020;28;20097;-56
2023/12/13 01:27:40;;;;;;;599.78;298.30;;;;;;;9.68;100.00;96414.63;5016419;28;20025;-53
2023/12/13 01:30:08;;;;;;;615.15;297.42;;;;;;;9.71;100.00;96412.78;5017047;28;20064;-55
2023/12/13 01:32:34;;;;;;;714.97;306.25;;;;;;;9.71;100.00;96414.53;5015513;28;20668;-55
2023/12/13 01:34:59;;;;;;;602.67;295.88;;;;;;;9.61;100.00;96413.91;5018724;28;20595;-55
2023/12/13 01:37:24;;;;;;;658.03;301.27;;;;;;;9.47;100.00;96412.50;5017470;28;20589;-56
2023/12/13 01:39:50;;;;;;;616.67;298.48;;;;;;;9.50;100.00;96404.66;5018493;28;20462;-54
2023/12/13 01:42:15;;;;;;;655.22;304.83;;;;;;;9.48;100.00;96408.16;5017852;28;20486;-56
2023/12/13 01:44:41;;;;;;;590.25;299.05;;;;;;;9.42;100.00;96411.75;5016558;28;21861;-56
2023/12/13 01:47:07;;;;;;;576.15;296.27;;;;;;;9.36;100.00;96404.13;5017697;28;20473;-54
2023/12/13 01:49:32;;;;;;;657.10;302.80;;;;;;;9.28;100.00;96406.91;5016404;28;20029;-56
2023/12/13 01:51:58;;;;;;;584.30;297.52;;;;;;;9.18;100.00;96416.66;5017983;28;20052;-55
2023/12/13 01:54:24;;;;;;;636.65;301.33;;;;;;;9.18;100.00;96419.25;5017234;28;20029;-56
2023/12/13 01:56:51;;;;;;;639.17;303.38;;;;;;;9.22;100.00;96420.88;5018254;28;20129;-56
2023/12/13 01:59:17;;;;;;;629.58;299.58;;;;;;;9.10;100.00;96421.16;5017750;28;20035;-55
2023/12/13 02:01:43;;;;;;;579.15;297.88;;;;;;;9.12;100.00;96427.16;5016478;28;20037;-56
2023/12/13 02:04:13;;;;;;;641.63;304.23;;;;;;;9.13;100.00;96421.06;5016757;28;20040;-56
2023/12/13 02:06:40;;;;;;;616.80;303.23;;;;;;;9.16;100.00;96412.41;5015748;28;20040;-56
2023/12/13 02:09:06;;;;;;;637.15;301.50;;;;;;;9.14;100.00;96417.63;5018409;28;20451;-55
2023/12/13 02:11:31;;;;;;;688.78;306.67;;;;;;;9.23;100.00;96409.63;5016483;28;20291;-56
2023/12/13 02:13:57;;;;;;;602.80;300.25;;;;;;;9.17;100.00;96412.34;5018834;28;20029;-54
2023/12/13 02:16:22;;;;;;;632.35;302.92;;;;;;;9.21;100.00;96411.38;5015690;28;20421;-55
2023/12/13 02:18:48;;;;;;;616.63;299.77;;;;;;;9.19;100.00;96413.16;5017278;28;20021;-54
2023/12/13 02:21:13;;;;;;;597.47;294.20;;;;;;;9.10;100.00;96413.38;5017375;28;20558;-55
2023/12/13 02:23:38;;;;;;;667.28;300.27;;;;;;;9.01;100.00;96413.59;5016513;28;20030;-56
2023/12/13 02:26:07;;;;;;;610.25;300.70;;;;;;;8.83;100.00;96413.09;5017368;28;20408;-56
2023/12/13 02:28:33;;;;;;;677.33;306.70;;;;;;;8.79;100.00;96414.03;5017254;28;20060;-55
2023/12/13 02:31:00;;;;;;;588.92;293.75;;;;;;;8.91;100.00;96413.78;5017297;28;20044;-56
2023/12/13 02:33:26;;;;;;;643.25;301.02;;;;;;;8.96;100.00;96405.91;5016488;28;20028;-55
2023/12/13 02:35:55;;;;;;;592.53;296.85;;;;;;;9.08;100.00;96409.97;5017474;28;20568;-55
2023/12/13 02:38:20;;;;;;;615.22;296.05;;;;;;;9.16;100.00;96412.41;5018115;28;20485;-56
2023/12/13 02:40:46;;;;;;;585.90;292.23;;;;;;;9.06;100.00;96415.19;5016336;28;20033;-55
2023/12/13 02:43:11;;;;;;;565.67;283.65;;;;;;;9.05;100.00;96415.25;5017262;28;20091;-55
2023/12/13 02:45:36;;;;;;;659.67;294.00;;;;;;;9.02;100.00;96410.13;5015908;28;20065;-55
2023/12/13 02:48:02;;;;;;;576.78;288.48;;;;;;;8.95;100.00;96412.00;5017684;28;20033;-55
2023/12/13 02:50:27;;;;;;;591.17;291.77;;;;;;;8.97;100.00;96413.66;5014938;28;20108;-55
2023/12/13 02:52:52;;;;;;;578.95;287.27;;;;;;;8.87;100.00;96406.94;5017309;28;20496;-55
2023/12/13 02:55:18;;;;;;;587.80;288.83;;;;;;;8.79;100.00;96408.84;5015439;28;20501;-56
2023/12/13 02:57:43;;;;;;;544.80;289.95;;;;;;;8.69;100.00;96411.66;5012425;28;20191;-55
2023/12/13 03:00:09;;;;;;;594.28;287.25;;;;;;;8.56;100.00;96411.06;5016542;28;20580;-56
2023/12/13 03:02:35;;;;;;;654.30;293.98;;;;;;;8.55;100.00;96406.78;5015143;28;20038;-54
2023/12/13 03:05:01;;;;;;;583.97;287.73;;;;;;;8.58;100.00;96401.50;5016435;28;20013;-55
2023/12/13 03:07:27;;;;;;;629.97;285.42;;;;;;;8.63;100.00;96406.63;5016205;28;20545;-56
2023/12/13 03:09:52;;;;;;;566.85;286.48;;;;;;;8.62;100.00;96401.47;5017413;28;20304;-55
2023/12/13 03:12:18;;;;;;;564.50;288.38;;;;;;;8.65;100.00;96399.66;5015361;28;20079;-56
2023/12/13 03:14:43;;;;;;;654.70;295.33;;;;;;;8.65;100.00;96393.63;5016096;28;20047;-54
2023/12/13 03:17:08;;;;;;;565.95;290.77;;;;;;;8.70;100.00;96390.06;5016654;28;20042;-53
2023/12/13 03:19:34;;;;;;;669.70;299.90;;;;;;;8.72;100.00;96395.19;5015783;28;20460;-55
2023/12/13 03:21:59;;;;;;;617.80;294.30;;;;;;;8.71;100.00;96391.75;5015142;28;20045;-55
2023/12/13 03:24:24;;;;;;;592.05;292.23;;;;;;;8.75;100.00;96391.69;5015299;28;20328;-56
2023/12/13 03:26:50;;;;;;;583.03;294.15;;;;;;;8.73;100.00;96391.72;5014226;28;20049;-54
2023/12/13 03:29:16;;;;;;;632.15;299.23;;;;;;;8.70;100.00;96392.66;5017011;28;20060;-54
2023/12/13 03:31:41;;;;;;;632.35;299.35;;;;;;;8.68;100.00;96396.13;5015383;28;20064;-55
2023/12/13 03:34:06;;;;;;;597.38;297.55;;;;;;;8.71;100.00;96385.72;5017577;28;20104;-55
2023/12/13 03:36:31;;;;;;;699.95;306.70;;;;;;;8.76;100.00;96388.22;5014807;28;20187;-54
2023/12/13 03:38:57;;;;;;;579.65;293.60;;;;;;;8.68;100.00;96391.81;5016403;28;20512;-54
2023/12/13 03:41:23;;;;;;;615.55;296.98;;;;;;;8.71;100.00;96391.75;5014686;28;20049;-55
2023/12/13 03:43:49;;;;;;;602.50;296.67;;;;;;;8.67;100.00;96391.84;5016030;28;20033;-54
2023/12/13 03:46:14;;;;;;;574.22;294.58;;;;;;;8.72;100.00;96392.59;5016508;28;20466;-55
2023/12/13 03:48:39;;;;;;;603.08;295.02;;;;;;;8.62;100.00;96389.38;5013995;28;20034;-55
2023/12/13 03:51:05;;;;;;;632.90;299.00;;;;;;;8.64;100.00;96390.16;5015352;28;20048;-55
2023/12/13 03:53:31;;;;;;;655.08;301.02;;;;;;;8.52;100.00;96380.03;5014029;28;20317;-55
2023/12/13 03:55:57;;;;;;;577.00;297.50;;;;;;;8.25;100.00;96377.13;5016041;28;20061;-56
2023/12/13 03:58:22;;;;;;;670.58;300.60;;;;;;;8.05;100.00;96386.13;5015035;28;20068;-54
2023/12/13 04:00:47;;;;;;;586.83;299.63;;;;;;;8.03;100.00;96386.19;5014809;28;20053;-55
2023/12/13 04:03:13;;;;;;;587.20;293.48;;;;;;;7.92;100.00;96378.63;5017141;28;20036;-57
2023/12/13 04:05:38;;;;;;;677.42;306.08;;;;;;;7.89;100.00;96383.84;5013959;28;20290;-56
2023/12/13 04:08:03;;;;;;;555.13;313.52;;;;;;;7.89;100.00;96380.41;5015037;28;20037;-55
2023/12/13 04:10:29;;;;;;;624.63;301.05;;;;;;;7.88;100.00;96374.38;5013897;28;20106;-57
2023/12/13 04:12:54;;;;;;;625.97;298.98;;;;;;;7.95;100.00;96380.28;5014757;28;20036;-56
2023/12/13 04:15:20;;;;;;;591.03;297.75;;;;;;;7.96;100.00;96379.41;5016161;28;20079;-55
2023/12/13 04:17:45;;;;;;;664.50;305.42;;;;;;;8.06;100.00;96377.50;5015465;28;20630;-55
2023/12/13 04:20:11;;;;;;;565.25;296.75;;;;;;;8.07;100.00;96382.66;5014851;28;20041;-53
2023/12/13 04:22:36;;;;;;;651.28;303.35;;;;;;;8.07;100.00;96379.19;5013975;28;20056;-55
2023/12/13 04:25:02;;;;;;;587.67;297.08;;;;;;;8.04;100.00;96380.13;5017263;28;20020;-55
2023/12/13 04:27:27;;;;;;;636.78;301.95;;;;;;;8.00;100.00;96380.19;5014808;28;20041;-55
2023/12/13 04:29:53;;;;;;;561.40;289.60;;;;;;;8.01;100.00;96380.16;5014700;28;20025;-54
2023/12/13 04:32:18;;;;;;;585.88;295.02;;;;;;;7.85;100.00;96384.78;5014676;28;20386;-54
2023/12/13 04:34:44;;;;;;;651.95;299.73;;;;;;;7.81;100.00;96393.47;5015199;28;20377;-56
2023/12/13 04:37:09;;;;;;;575.70;292.48;;;;;;;7.83;100.00;96389.13;5015731;28;20053;-56
2023/12/13 04:39:35;;;;;;;688.22;301.30;;;;;;;7.92;100.00;96388.09;5014286;28;20033;-56
2023/12/13 04:42:00;;;;;;;633.10;299.10;;;;;;;7.91;100.00;96394.19;5015791;28;20048;-56
2023/12/13 04:44:27;;;;;;;603.83;294.23;;;;;;;8.03;100.00;96385.31;5015362;28;20044;-55
2023/12/13 04:46:54;;;;;;;558.97;293.17;;;;;;;7.96;100.00;96379.41;5013845;28;20041;-53
2023/12/13 04:49:19;;;;;;;626.55;295.13;;;;;;;8.12;100.00;96379.97;5015784;28;20428;-57
2023/12/13 04:51:45;;;;;;;661.92;298.67;;;;;;;8.18;100.00;96379.84;5014616;28;20033;-55
2023/12/13 04:54:10;;;;;;;556.15;292.17;;;;;;;8.07;100.00;96382.66;5016381;28;20413;-55
2023/12/13 04:56:36;;;;;;;691.75;301.55;;;;;;;8.19;100.00;96389.31;5014617;28;20299;-55
2023/12/13 04:59:01;;;;;;;617.08;298.83;;;;;;;8.16;100.00;96384.19;5014385;28;20024;-57
2023/12/13 05:01:26;;;;;;;570.05;293.27;;;;;;;8.25;100.00;96388.34;5015720;28;20312;-56
2023/12/13 05:03:52;;;;;;;608.33;296.17;;;;;;;8.14;100.00;96385.97;5015306;28;20084;-55
2023/12/13 05:06:19;;;;;;;578.30;297.48;;;;;;;8.08;100.00;96391.25;5017070;28;20052;-57
2023/12/13 05:08:45;;;;;;;613.92;301.75;;;;;;;8.10;100.00;96386.06;5014537;28;20709;-57
2023/12/13 05:11:11;;;;;;;636.70;304.60;;;;;;;8.16;100.00;96389.38;5013669;28;20073;-54
2023/12/13 05:13:36;;;;;;;665.90;307.65;;;;;;;8.21;100.00;96391.88;5014401;28;20608;-55
2023/12/13 05:16:02;;;;;;;578.53;302.55;;;;;;;8.19;100.00;96391.91;5012988;28;20026;-55
2023/12/13 05:18:27;;;;;;;636.78;302.45;;;;;;;8.18;100.00;96391.94;5017110;28;20080;-56
2023/12/13 05:20:53;;;;;;;606.70;302.70;;;;;;;8.12;100.00;96386.91;5016927;28;20512;-55
2023/12/13 05:23:18;;;;;;;599.88;301.05;;;;;;;8.17;100.00;96385.06;5018826;28;20523;-55
2023/12/13 05:25:43;;;;;;;696.80;309.15;;;;;;;8.11;100.00;96386.03;5017053;28;20045;-56
2023/12/13 05:28:09;;;;;;;590.97;300.30;;;;;;;8.14;100.00;96375.63;5019553;28;20191;-55
2023/12/13 05:30:34;;;;;;;668.17;305.00;;;;;;;8.18;100.00;96386.75;5017103;28;20122;-54
2023/12/13 05:33:00;;;;;;;615.83;299.13;;;;;;;8.14;100.00;96382.53;5019332;28;20013;-55
2023/12/13 05:35:25;;;;;;;569.50;300.85;;;;;;;8.21;100.00;96391.88;5017816;28;20362;-55
2023/12/13 05:37:50;;;;;;;608.95;299.15;;;;;;;8.15;100.00;96390.28;5016275;28;20033;-55
2023/12/13 05:40:16;;;;;;;605.25;298.27;;;;;;;8.10;100.00;96389.50;5018680;28;20374;-56
2023/12/13 05:42:41;;;;;;;665.97;304.85;;;;;;;8.10;100.00;96391.22;5017449;28;20057;-54
2023/12/13 05:45:07;;;;;;;584.83;299.02;;;;;;;8.03;100.00;96399.13;5017598;28;20497;-57
2023/12/13 05:47:32;;;;;;;609.47;301.15;;;;;;;8.05;100.00;96396.47;5017388;28;20249;-55
2023/12/13 05:49:58;;;;;;;588.35;297.63;;;;;;;8.00;100.00;96394.00;5017564;28;20025;-55
2023/12/13 05:52:23;;;;;;;629.90;304.30;;;;;;;8.10;100.00;96397.28;5017626;28;20080;-56
2023/12/13 05:54:49;;;;;;;690.95;307.25;;;;;;;8.06;100.00;96388.69;5016497;28;20350;-55
2023/12/13 05:57:14;;;;;;;583.33;298.75;;;;;;;8.04;100.00;96387.03;5018446;28;20064;-56
2023/12/13 05:59:39;;;;;;;673.65;305.85;;;;;;;8.09;100.00;96392.97;5017448;28;20025;-54
2023/12/13 06:02:05;;;;;;;628.35;301.15;;;;;;;8.02;100.00;96396.56;5017018;28;20033;-54
2023/12/13 06:04:30;;;;;;;601.45;299.33;;;;;;;7.92;100.00;96394.16;5016975;28;20329;-56
2023/12/13 06:06:55;;;;;;;577.58;289.05;;;;;;;8.02;100.00;96392.22;5017431;28;20128;-56
2023/12/13 06:09:21;;;;;;;614.85;292.73;;;;;;;8.05;100.00;96381.81;5018013;28;20025;-55
2023/12/13 06:11:46;;;;;;;685.78;294.17;;;;;;;8.07;100.00;96385.25;5016165;28;20045;-55
2023/12/13 06:14:11;;;;;;;580.22;285.90;;;;;;;8.11;100.00;96386.03;5017406;28;20029;-57
2023/12/13 06:16:37;;;;;;;662.97;294.05;;;;;;;7.99;100.00;96387.13;5016324;28;20343;-54
2023/12/13 06:19:02;;;;;;;619.05;295.60;;;;;;;7.99;100.00;96386.25;5017810;28;20032;-55
2023/12/13 06:21:27;;;;;;;608.35;282.02;;;;;;;7.98;100.00;96392.31;5017589;28;20156;-54
2023/12/13 06:23:53;;;;;;;607.67;281.80;;;;;;;8.05;100.00;96387.00;5017362;28;20044;-54
2023/12/13 06:26:18;;;;;;;585.42;285.42;;;;;;;8.11;100.00;96391.22;5018218;28;20390;-54
2023/12/13 06:28:43;;;;;;;661.45;294.38;;;;;;;8.21;100.00;96397.91;5016162;28;20025;-57
2023/12/13 06:31:09;;;;;;;567.67;288.63;;;;;;;8.18;100.00;96389.34;5016830;28;20681;-56
2023/12/13 06:33:34;;;;;;;580.70;291.65;;;;;;;8.16;100.00;96386.78;5016275;28;20090;-54
2023/12/13 06:36:00;;;;;;;583.05;291.20;;;;;;;8.19;100.00;96385.88;5016677;28;20033;-55
2023/12/13 06:38:25;;;;;;;631.42;299.08;;;;;;;8.10;100.00;96383.47;5015658;28;20120;-55
2023/12/13 06:40:50;;;;;;;678.83;301.48;;;;;;;8.01;100.00;96385.34;5015374;28;20041;-54
2023/12/13 06:43:16;;;;;;;582.15;297.17;;;;;;;7.91;100.00;96383.81;5017780;28;20044;-54
2023/12/13 06:45:41;;;;;;;688.55;304.40;;;;;;;7.97;100.00;96382.88;5015573;28;20068;-54
2023/12/13 06:48:07;;;;;;;587.83;297.48;;;;;;;7.91;100.00;96379.47;5017818;28;20082;-55
2023/12/13 06:50:32;;;;;;;605.90;297.00;;;;;;;7.91;100.00;96382.06;5013074;28;20045;-55
2023/12/13 06:52:58;;;;;;;602.83;298.42;;;;;;;7.84;100.00;96377.91;5014707;28;20025;-56
2023/12/13 06:55:24;;;;;;;593.53;294.67;;;;;;;7.86;100.00;96381.31;5016712;28;20513;-55
2023/12/13 06:57:49;;;;;;;655.75;302.30;;;;;;;7.85;100.00;96374.44;5017334;28;20496;-57
2023/12/13 07:00:15;;;;;;;574.42;297.67;;;;;;;7.79;100.00;96385.75;5015827;28;20060;-55
2023/12/13 07:02:40;;;;;;;635.72;304.15;;;;;;;7.82;100.00;96380.53;5015832;28;20536;-55
2023/12/13 07:05:07;;;;;;;557.83;297.63;;;;;;;7.85;100.00;96384.78;5016034;28;20027;-55
2023/12/13 07:07:33;;;;;;;616.88;301.98;;;;;;;7.87;100.00;96392.53;5017365;28;20052;-55
2023/12/13 07:09:58;;;;;;;575.72;300.58;;;;;;;7.95;100.00;96391.47;5016117;28;20033;-55
2023/12/13 07:12:27;;;;;;;592.38;299.55;;;;;;;7.86;100.00;96396.84;5016682;28;20300;-55
2023/12/13 07:14:53;;;;;;;653.58;304.25;;;;;;;8.04;100.00;96395.66;5015144;28;20026;-55
2023/12/13 07:17:19;;;;;;;584.72;303.55;;;;;;;8.04;100.00;96392.19;5016350;28;20040;-55
2023/12/13 07:19:44;;;;;;;727.30;312.67;;;;;;;8.00;100.00;96387.97;5014289;28;20022;-55
2023/12/13 07:22:10;;;;;;;570.25;299.13;;;;;;;7.98;100.00;96389.75;5017454;28;20037;-57
2023/12/13 07:24:36;;;;;;;588.47;299.55;;;;;;;8.20;100.00;96380.66;5016501;28;20025;-57
2023/12/13 07:27:01;;;;;;;633.55;303.85;;;;;;;8.27;100.00;96376.22;5007580;28;20083;-56
2023/12/13 07:29:29;;;;;;;586.78;302.52;;;;;;;8.32;100.00;96368.38;5016514;28;20625;-57
2023/12/13 07:31:55;;;;;;;694.08;311.70;;;;;;;8.33;100.00;96370.06;5015308;28;20045;-57
2023/12/13 07:34:20;;;;;;;637.10;306.60;;;;;;;8.32;100.00;96373.53;5015385;28;20021;-56
2023/12/13 07:36:48;;;;;;;706.00;311.95;;;;;;;8.36;100.00;96364.81;5014000;28;20145;-57
2023/12/13 07:39:15;;;;;;;601.83;301.48;;;;;;;8.25;100.00;96372.81;5017298;28;20025;-57
2023/12/13 07:41:41;;;;;;;677.63;315.75;;;;;;;8.51;100.00;96368.84;5013947;28;20026;-55
2023/12/13 07:44:06;;;;;;;596.53;305.60;;;;;;;8.56;100.00;96369.63;5017247;28;20064;-56
2023/12/13 07:46:31;;;;;;;601.67;302.63;;;;;;;8.39;100.00;96364.75;5016409;28;20033;-57
2023/12/13 07:49:03;;;;;;;675.45;309.17;;;;;;;8.52;100.00;96362.75;5014390;28;20118;-56
2023/12/13 07:51:31;;;;;;;595.77;302.03;;;;;;;8.50;100.00;96371.44;5015694;28;20030;-54
2023/12/13 07:53:59;;;;;;;684.13;309.60;;;;;;;8.35;100.00;96368.28;5015221;28;20041;-56
2023/12/13 07:56:25;;;;;;;603.83;305.40;;;;;;;8.51;100.00;96357.59;5014736;28;20033;-57
2023/12/13 07:58:50;;;;;;;656.95;308.33;;;;;;;8.51;100.00;96366.25;5015530;28;20204;-55
2023/12/13 08:01:16;;;;;;;693.25;312.40;;;;;;;8.65;100.00;96365.94;5013930;28;20220;-56
2023/12/13 08:03:41;;;;;;;575.33;300.05;;;;;;;8.70;100.00;96366.72;5011891;28;20037;-57
2023/12/13 08:06:13;;;;;;;545.83;299.30;;;;;;;8.76;100.00;96362.28;5019276;28;20053;-58
2023/12/13 08:08:39;;;;;;;584.20;291.13;;;;;;;9.14;100.00;96368.34;5017952;28;20124;-55
2023/12/13 08:11:05;;;;;;;527.53;285.80;;;;;;;9.22;100.00;96371.59;5019422;28;20137;-56
2023/12/13 08:13:31;;;;;;;557.72;290.85;;;;;;;9.19;100.00;96369.06;5019619;28;20027;-56
2023/12/13 08:15:57;;;;;;;691.50;300.83;;;;;;;8.97;100.00;96372.19;5017904;28;20033;-56
2023/12/13 08:18:22;;;;;;;584.22;295.55;;;;;;;8.73;100.00;96374.41;5019546;28;20128;-57
2023/12/13 08:20:47;;;;;;;677.13;304.55;;;;;;;8.83;100.00;96376.78;5016077;28;20532;-57
2023/12/13 08:23:13;;;;;;;576.15;294.70;;;;;;;8.71;100.00;96367.56;5017501;28;20107;-57
2023/12/13 08:25:38;;;;;;;547.78;293.10;;;;;;;8.79;100.00;96364.78;5018690;28;20128;-55
2023/12/13 08:28:04;;;;;;;526.85;294.20;;;;;;;9.04;100.00;96367.69;5017547;28;20037;-55
2023/12/13 08:30:29;;;;;;;617.85;296.98;;;;;;;8.90;100.00;96364.59;5017572;28;20047;-56
2023/12/13 08:32:54;;;;;;;652.13;300.35;;;;;;;8.99;100.00;96367.78;5011563;28;20043;-56
2023/12/13 08:35:20;;;;;;;540.50;283.73;;;;;;;8.99;100.00;96369.56;5018058;28;20048;-56
2023/12/13 08:37:45;;;;;;;610.53;290.58;;;;;;;8.99;100.00;96369.56;5017344;28;20456;-56
2023/12/13 08:40:11;;;;;;;548.45;288.70;;;;;;;9.12;100.00;96359.72;5019084;28;20021;-55
2023/12/13 08:42:37;;;;;;;545.95;289.25;;;;;;;9.18;100.00;96351.81;5018804;28;20126;-57
2023/12/13 08:45:03;;;;;;;544.25;288.90;;;;;;;9.37;100.00;96357.41;5017785;28;20018;-56
2023/12/13 08:47:29;;;;;;;561.75;290.23;;;;;;;9.71;100.00;96357.41;5018791;28;20033;-57
2023/12/13 08:49:54;;;;;;;690.00;303.70;;;;;;;9.68;100.00;96362.72;5017977;28;20033;-56
2023/12/13 08:52:20;;;;;;;544.83;288.50;;;;;;;10.14;100.00;96363.22;5020260;28;20512;-55
2023/12/13 08:54:46;;;;;;;639.88;298.77;;;;;;;10.45;100.00;96362.38;5022058;28;20491;-56
2023/12/13 08:57:11;;;;;;;566.55;293.00;;;;;;;10.51;100.00;96359.56;5022656;28;20034;-54
2023/12/13 08:59:36;;;;;;;557.08;289.85;;;;;;;10.81;100.00;96363.91;5021651;28;20075;-56
2023/12/13 09:02:02;;;;;;;573.15;288.98;;;;;;;11.36;100.00;96357.84;5021631;28;20501;-56
2023/12/13 09:04:27;;;;;;;568.22;292.40;;;;;;;11.44;100.00;96350.63;5022623;28;20406;-55
2023/12/13 09:06:53;;;;;;;689.17;297.40;;;;;;;11.40;100.00;96354.25;5021341;28;20152;-56
2023/12/13 09:09:18;;;;;;;583.88;289.38;;;;;;;11.45;100.00;96352.38;5021310;28;20484;-55
2023/12/13 09:11:46;;;;;;;567.75;288.90;;;;;;;11.32;100.00;96357.09;5020229;28;20084;-56
2023/12/13 09:14:11;;;;;;;561.20;286.90;;;;;;;11.20;100.00;96360.97;5023593;28;20441;-55
2023/12/13 09:16:37;;;;;;;544.15;286.30;;;;;;;11.45;100.00;96362.78;5021488;28;20152;-55
2023/12/13 09:19:02;;;;;;;576.35;288.98;;;;;;;11.17;100.00;96358.44;5019889;28;20038;-56
2023/12/13 09:21:28;;;;;;;560.75;285.55;;;;;;;11.18;100.00;96354.94;5021455;28;20033;-55
2023/12/13 09:23:53;;;;;;;702.08;299.67;;;;;;;10.87;100.00;96349.88;5021479;28;20025;-56
2023/12/13 09:26:18;;;;;;;552.45;289.58;;;;;;;10.58;100.00;96349.00;5021735;28;20336;-55
2023/12/13 09:28:44;;;;;;;591.67;289.40;;;;;;;10.41;100.00;96348.59;5021104;28;20025;-55
2023/12/13 09:31:11;;;;;;;568.22;288.88;;;;;;;10.53;100.00;96343.94;5022136;28;20050;-55
2023/12/13 09:33:37;;;;;;;592.80;286.85;;;;;;;10.37;100.00;96349.56;5021969;28;20210;-55
2023/12/13 09:36:03;;;;;;;572.60;286.70;;;;;;;10.33;100.00;96347.97;5020196;28;20037;-54
2023/12/13 09:38:29;;;;;;;576.10;291.20;;;;;;;10.39;100.00;96349.50;5023076;28;20030;-55
2023/12/13 09:40:55;;;;;;;651.58;294.73;;;;;;;10.83;100.00;96332.66;5020570;28;20038;-55
2023/12/13 09:43:23;;;;;;;545.35;289.73;;;;;;;10.65;100.00;96342.75;5022360;28;20047;-54
2023/12/13 09:45:50;;;;;;;661.65;296.90;;;;;;;10.82;100.00;96344.81;5011940;28;20448;-56
2023/12/13 09:48:21;;;;;;;626.70;292.70;;;;;;;10.46;100.00;96355.44;5022422;28;20075;-56
2023/12/13 09:50:52;;;;;;;576.55;289.73;;;;;;;10.72;100.00;96349.44;5019454;28;20037;-55
2023/12/13 09:53:20;;;;;;;564.95;291.08;;;;;;;11.14;100.00;96347.31;5022623;28;20037;-55
2023/12/13 09:55:46;;;;;;;586.33;294.38;;;;;;;10.92;100.00;96353.19;5019745;28;20436;-54
2023/12/13 09:58:12;;;;;;;542.92;287.88;;;;;;;10.89;100.00;96350.66;5022337;28;20504;-55
2023/12/13 10:00:37;;;;;;;549.05;289.70;;;;;;;11.04;100.00;96363.22;5019877;28;20038;-55
2023/12/13 10:03:02;;;;;;;701.92;302.20;;;;;;;9.57;100.00;96353.44;5020291;28;20378;-55
2023/12/13 10:05:28;;;;;;;706.03;409.48;;;;;;;9.33;100.00;96357.50;5020882;28;20040;-56
2023/12/13 10:08:02;;;;;;;644.72;300.88;;;;;;;9.18;100.00;96354.41;5021348;28;20043;-55
2023/12/13 10:10:31;;;;;;;537.53;295.17;;;;;;;9.19;100.00;96352.66;5020072;28;20900;-54
2023/12/13 10:12:58;;;;;;;576.67;299.85;;;;;;;9.41;100.00;96352.97;5020313;28;20057;-56
2023/12/13 10:15:24;;;;;;;659.55;367.10;;;;;;;9.77;100.00;96349.47;5018354;28;20029;-56
2023/12/13 10:17:50;;;;;;;652.58;308.95;;;;;;;9.82;100.00;96354.53;5018464;28;20033;-54
2023/12/13 10:20:15;;;;;;;576.63;301.08;;;;;;;9.64;100.00;96346.34;5020064;28;20389;-60
2023/12/13 10:22:41;;;;;;;556.97;295.23;;;;;;;9.83;100.00;96346.72;5021031;28;20505;-54
2023/12/13 10:25:07;;;;;;;521.75;294.98;;;;;;;10.03;100.00;96347.94;5018906;28;20033;-55
2023/12/13 10:27:33;;;;;;;535.00;297.17;;;;;;;9.58;100.00;96347.34;5020876;28;20416;-55
2023/12/13 10:29:59;;;;;;;700.33;308.38;;;;;;;9.57;100.00;96347.41;5017755;28;20039;-55
2023/12/13 10:32:24;;;;;;;571.97;295.77;;;;;;;10.40;100.00;96346.03;5020000;28;20096;-56
2023/12/13 10:34:50;;;;;;;634.08;300.40;;;;;;;10.85;100.00;96342.13;5019060;28;20510;-55
2023/12/13 10:37:17;;;;;;;540.67;290.20;;;;;;;10.80;100.00;96347.47;5020113;28;20033;-55
2023/12/13 10:39:46;;;;;;;534.42;291.10;;;;;;;10.54;100.00;96346.50;5019322;28;20021;-55
2023/12/13 10:42:15;;;;;;;598.80;292.52;;;;;;;10.67;100.00;96335.72;5017740;28;20148;-55
2023/12/13 10:44:44;;;;;;;554.60;290.77;;;;;;;10.96;100.00;96326.19;5021364;28;20025;-55
2023/12/13 10:47:12;;;;;;;550.85;290.30;;;;;;;10.92;100.00;96330.59;5016637;28;20041;-57
2023/12/13 10:49:39;;;;;;;594.63;292.75;;;;;;;10.71;100.00;96320.88;5019759;28;20040;-54
2023/12/13 10:52:06;;;;;;;692.00;308.55;;;;;;;10.60;100.00;96319.47;5015875;28;20047;-55